createdAt,value
2018-09-16T00:00:22.073Z,45.76
2018-09-16T00:01:22.028Z,45.76
2018-09-16T00:02:21.985Z,45.76
2018-09-16T00:03:21.938Z,45.76
2018-09-16T00:04:21.892Z,45.96
2018-09-16T00:05:21.856Z,45.86
2018-09-16T00:06:21.804Z,45.86
2018-09-16T00:07:21.759Z,45.96
2018-09-16T00:08:21.713Z,45.76
2018-09-16T00:09:21.670Z,45.86
2018-09-16T00:10:21.624Z,45.96
2018-09-16T00:11:21.579Z,45.86
2018-09-16T00:12:21.534Z,45.96
2018-09-16T00:13:21.495Z,45.86
2018-09-16T00:14:21.444Z,45.96
2018-09-16T00:15:21.400Z,45.96
2018-09-16T00:16:21.354Z,45.96
2018-09-16T00:17:21.310Z,46.15
2018-09-16T00:18:21.265Z,46.15
2018-09-16T00:19:21.220Z,45.86
2018-09-16T00:20:21.491Z,45.96
2018-09-16T00:21:21.130Z,45.96
2018-09-16T00:22:21.089Z,45.76
2018-09-16T00:23:21.041Z,46.06
2018-09-16T00:24:20.995Z,45.86
2018-09-16T00:25:20.952Z,46.06
2018-09-16T00:26:20.905Z,45.96
2018-09-16T00:27:20.860Z,45.86
2018-09-16T00:28:20.815Z,46.25
2018-09-16T00:29:20.770Z,45.76
2018-09-16T00:30:20.726Z,45.94
2018-09-16T00:31:20.681Z,46.25
2018-09-16T00:32:20.636Z,46.15
2018-09-16T00:33:20.591Z,45.86
2018-09-16T00:34:20.546Z,45.96
2018-09-16T00:35:20.502Z,46.06
2018-09-16T00:36:20.457Z,46.06
2018-09-16T00:37:20.411Z,45.96
2018-09-16T00:38:20.366Z,46.06
2018-09-16T00:39:20.322Z,46.06
2018-09-16T00:40:20.276Z,46.25
2018-09-16T00:41:20.231Z,46.25
2018-09-16T00:42:20.187Z,45.96
2018-09-16T00:43:20.145Z,46.06
2018-09-16T00:44:20.096Z,46.06
2018-09-16T00:45:20.052Z,45.76
2018-09-16T00:46:20.012Z,45.96
2018-09-16T00:47:19.963Z,46.06
2018-09-16T00:48:19.917Z,46.06
2018-09-16T00:49:19.873Z,46.06
2018-09-16T00:50:19.828Z,46.06
2018-09-16T00:51:19.783Z,46.06
2018-09-16T00:52:19.737Z,46.15
2018-09-16T00:53:19.693Z,46.15
2018-09-16T00:54:19.648Z,46.06
2018-09-16T00:55:19.603Z,46.06
2018-09-16T00:56:19.558Z,46.13
2018-09-16T00:57:19.513Z,46.15
2018-09-16T00:58:19.470Z,46.06
2018-09-16T00:59:19.423Z,46.25
2018-09-16T01:00:19.380Z,46.06
2018-09-16T01:01:19.333Z,46.06
2018-09-16T01:02:19.288Z,46.06
2018-09-16T01:03:19.243Z,45.96
2018-09-16T01:04:19.201Z,46.15
2018-09-16T01:05:19.153Z,45.96
2018-09-16T01:06:19.108Z,46.06
2018-09-16T01:07:19.065Z,46.06
2018-09-16T01:08:19.018Z,46.03
2018-09-16T01:09:18.973Z,46.06
2018-09-16T01:10:18.928Z,46.06
2018-09-16T01:11:18.884Z,46.13
2018-09-16T01:12:18.838Z,46.15
2018-09-16T01:13:18.793Z,46.23
2018-09-16T01:14:18.749Z,45.94
2018-09-16T01:15:18.707Z,45.76
2018-09-16T01:16:18.661Z,45.76
2018-09-16T01:17:18.613Z,45.94
2018-09-16T01:18:18.569Z,45.76
2018-09-16T01:19:18.525Z,45.75
2018-09-16T01:20:18.479Z,46.15
2018-09-16T01:21:18.434Z,45.76
2018-09-16T01:22:18.389Z,45.94
2018-09-16T01:23:18.344Z,45.75
2018-09-16T01:24:18.298Z,45.94
2018-09-16T01:25:18.254Z,45.76
2018-09-16T01:26:18.209Z,45.96
2018-09-16T01:27:18.164Z,45.86
2018-09-16T01:28:18.129Z,45.94
2018-09-16T01:29:18.174Z,45.96
2018-09-16T01:30:18.029Z,45.96
2018-09-16T01:31:17.985Z,45.84
2018-09-16T01:32:17.940Z,45.96
2018-09-16T01:33:17.901Z,45.94
2018-09-16T01:34:17.849Z,46.03
2018-09-16T01:35:17.805Z,45.94
2018-09-16T01:36:17.758Z,45.94
2018-09-16T01:37:17.714Z,45.86
2018-09-16T01:38:17.721Z,46.13
2018-09-16T01:39:17.624Z,45.96
2018-09-16T01:40:17.579Z,46.03
2018-09-16T01:41:17.534Z,46.06
2018-09-16T01:42:17.489Z,46.06
2018-09-16T01:43:17.444Z,46.03
2018-09-16T01:44:17.406Z,46.06
2018-09-16T01:45:17.355Z,46.03
2018-09-16T01:46:17.309Z,46.15
2018-09-16T01:47:17.265Z,46.03
2018-09-16T01:48:17.536Z,46.03
2018-09-16T01:49:17.491Z,46.03
2018-09-16T01:50:17.130Z,46.15
2018-09-16T01:51:17.085Z,46.42
2018-09-16T01:52:17.039Z,46.06
2018-09-16T01:53:17.004Z,46.03
2018-09-16T01:54:16.950Z,46.03
2018-09-16T01:55:16.905Z,46.03
2018-09-16T01:56:16.862Z,46.13
2018-09-16T01:57:16.815Z,46.03
2018-09-16T01:58:16.770Z,46.06
2018-09-16T01:59:16.727Z,46.33
2018-09-16T02:00:16.680Z,46.03
2018-09-16T02:01:16.634Z,46.23
2018-09-16T02:02:16.590Z,46.13
2018-09-16T02:03:16.545Z,46.33
2018-09-16T02:04:16.500Z,46.13
2018-09-16T02:05:16.455Z,46.13
2018-09-16T02:06:16.416Z,46.23
2018-09-16T02:07:16.371Z,46.03
2018-09-16T02:08:16.319Z,46.13
2018-09-16T02:09:16.274Z,46.23
2018-09-16T02:10:16.234Z,46.23
2018-09-16T02:11:16.185Z,46.23
2018-09-16T02:12:16.140Z,46.33
2018-09-16T02:13:16.095Z,46.33
2018-09-16T02:14:16.050Z,46.13
2018-09-16T02:15:16.006Z,46.13
2018-09-16T02:16:15.960Z,46.13
2018-09-16T02:17:15.915Z,45.94
2018-09-16T02:18:15.871Z,46.23
2018-09-16T02:19:15.827Z,46.33
2018-09-16T02:20:15.780Z,46.23
2018-09-16T02:21:15.737Z,46.34
2018-09-16T02:22:15.690Z,46.34
2018-09-16T02:23:15.645Z,46.15
2018-09-16T02:24:15.599Z,46.15
2018-09-16T02:25:15.555Z,46.13
2018-09-16T02:26:15.510Z,46.34
2018-09-16T02:27:15.466Z,46.23
2018-09-16T02:28:15.423Z,46.33
2018-09-16T02:29:15.374Z,46.25
2018-09-16T02:30:15.332Z,46.25
2018-09-16T02:31:15.284Z,46.33
2018-09-16T02:32:15.240Z,46.13
2018-09-16T02:33:15.194Z,46.23
2018-09-16T02:34:15.150Z,46.13
2018-09-16T02:35:15.105Z,46.33
2018-09-16T02:36:15.059Z,46.25
2018-09-16T02:37:15.019Z,46.51
2018-09-16T02:38:14.976Z,46.23
2018-09-16T02:39:14.925Z,46.23
2018-09-16T02:40:14.880Z,46.13
2018-09-16T02:41:14.834Z,46.13
2018-09-16T02:42:14.790Z,46.33
2018-09-16T02:43:14.781Z,46.42
2018-09-16T02:44:14.699Z,46.25
2018-09-16T02:45:14.654Z,46.13
2018-09-16T02:46:14.760Z,46.23
2018-09-16T02:47:14.565Z,46.23
2018-09-16T02:48:14.521Z,46.23
2018-09-16T02:49:14.475Z,46.23
2018-09-16T02:50:14.430Z,46.23
2018-09-16T02:51:14.384Z,46.33
2018-09-16T02:52:14.339Z,46.42
2018-09-16T02:53:14.294Z,46.42
2018-09-16T02:54:14.253Z,46.42
2018-09-16T02:55:14.205Z,46.33
2018-09-16T02:56:14.159Z,46.33
2018-09-16T02:57:14.114Z,46.33
2018-09-16T02:58:14.070Z,46.42
2018-09-16T02:59:14.025Z,46.42
2018-09-16T03:00:13.979Z,46.33
2018-09-16T03:01:13.937Z,46.42
2018-09-16T03:02:13.889Z,46.33
2018-09-16T03:03:13.847Z,46.23
2018-09-16T03:04:13.805Z,46.33
2018-09-16T03:05:13.754Z,46.42
2018-09-16T03:06:13.709Z,46.42
2018-09-16T03:07:13.664Z,46.51
2018-09-16T03:08:13.618Z,46.42
2018-09-16T03:09:13.573Z,46.33
2018-09-16T03:10:13.528Z,46.33
2018-09-16T03:11:13.488Z,46.23
2018-09-16T03:12:13.439Z,46.42
2018-09-16T03:13:13.393Z,46.42
2018-09-16T03:14:13.350Z,46.23
2018-09-16T03:15:13.304Z,46.33
2018-09-16T03:16:13.257Z,46.42
2018-09-16T03:17:13.213Z,46.33
2018-09-16T03:18:13.168Z,46.42
2018-09-16T03:19:13.125Z,46.33
2018-09-16T03:20:13.078Z,46.42
2018-09-16T03:21:13.033Z,46.42
2018-09-16T03:22:12.988Z,46.42
2018-09-16T03:23:12.944Z,46.42
2018-09-16T03:24:12.900Z,46.51
2018-09-16T03:25:12.854Z,46.42
2018-09-16T03:26:12.808Z,46.33
2018-09-16T03:27:12.763Z,46.44
2018-09-16T03:28:12.716Z,46.42
2018-09-16T03:29:12.672Z,46.42
2018-09-16T03:30:12.628Z,46.61
2018-09-16T03:31:12.583Z,46.33
2018-09-16T03:32:12.537Z,46.23
2018-09-16T03:33:12.494Z,46.51
2018-09-16T03:34:12.448Z,46.42
2018-09-16T03:35:12.403Z,46.51
2018-09-16T03:36:12.357Z,46.51
2018-09-16T03:37:12.312Z,46.33
2018-09-16T03:38:12.267Z,46.23
2018-09-16T03:39:12.223Z,46.42
2018-09-16T03:40:12.177Z,46.33
2018-09-16T03:41:12.132Z,46.23
2018-09-16T03:42:12.087Z,46.42
2018-09-16T03:43:12.042Z,46.51
2018-09-16T03:44:11.997Z,46.61
2018-09-16T03:45:11.954Z,46.42
2018-09-16T03:46:11.907Z,46.33
2018-09-16T03:47:11.862Z,46.51
2018-09-16T03:48:11.819Z,46.42
2018-09-16T03:49:11.772Z,46.42
2018-09-16T03:50:11.726Z,46.42
2018-09-16T03:51:11.682Z,46.42
2018-09-16T03:52:11.636Z,46.42
2018-09-16T03:53:11.592Z,46.61
2018-09-16T03:54:11.547Z,46.61
2018-09-16T03:55:11.502Z,46.61
2018-09-16T03:56:11.456Z,46.61
2018-09-16T03:57:11.435Z,46.42
2018-09-16T03:58:11.366Z,46.51
2018-09-16T03:59:11.322Z,46.81
2018-09-16T04:00:11.276Z,46.42
2018-09-16T04:01:11.230Z,46.51
2018-09-16T04:02:11.186Z,46.42
2018-09-16T04:03:11.142Z,46.42
2018-09-16T04:04:11.096Z,46.61
2018-09-16T04:05:11.051Z,46.51
2018-09-16T04:06:11.007Z,46.42
2018-09-16T04:07:10.965Z,46.71
2018-09-16T04:08:10.916Z,46.61
2018-09-16T04:09:10.888Z,46.33
2018-09-16T04:10:10.827Z,46.42
2018-09-16T04:11:10.782Z,46.51
2018-09-16T04:12:10.736Z,46.33
2018-09-16T04:13:10.690Z,46.42
2018-09-16T04:14:10.652Z,46.61
2018-09-16T04:15:10.601Z,46.51
2018-09-16T04:16:10.556Z,46.51
2018-09-16T04:17:10.512Z,46.81
2018-09-16T04:18:10.466Z,46.42
2018-09-16T04:19:10.421Z,46.33
2018-09-16T04:20:10.375Z,46.42
2018-09-16T04:21:10.444Z,46.42
2018-09-16T04:22:10.289Z,46.51
2018-09-16T04:23:10.253Z,46.71
2018-09-16T04:24:10.195Z,46.61
2018-09-16T04:25:10.200Z,46.33
2018-09-16T04:26:10.106Z,46.51
2018-09-16T04:27:10.061Z,46.61
2018-09-16T04:28:10.067Z,46.61
2018-09-16T04:29:09.970Z,46.42
2018-09-16T04:30:09.929Z,46.61
2018-09-16T04:31:09.881Z,46.71
2018-09-16T04:32:09.835Z,46.33
2018-09-16T04:33:09.789Z,46.42
2018-09-16T04:34:09.745Z,46.61
2018-09-16T04:35:09.700Z,46.51
2018-09-16T04:36:09.653Z,46.71
2018-09-16T04:37:09.609Z,46.61
2018-09-16T04:38:09.563Z,46.42
2018-09-16T04:39:09.519Z,46.61
2018-09-16T04:40:09.473Z,46.42
2018-09-16T04:41:09.432Z,46.42
2018-09-16T04:42:09.384Z,46.33
2018-09-16T04:43:09.338Z,46.51
2018-09-16T04:44:09.294Z,46.33
2018-09-16T04:45:09.248Z,46.51
2018-09-16T04:46:09.203Z,46.42
2018-09-16T04:47:09.159Z,46.61
2018-09-16T04:48:09.113Z,46.61
2018-09-16T04:49:09.068Z,46.71
2018-09-16T04:50:09.023Z,46.42
2018-09-16T04:51:08.980Z,46.42
2018-09-16T04:52:08.932Z,46.51
2018-09-16T04:53:08.887Z,46.71
2018-09-16T04:54:08.842Z,46.71
2018-09-16T04:55:08.796Z,46.71
2018-09-16T04:56:08.752Z,46.51
2018-09-16T04:57:08.707Z,46.42
2018-09-16T04:58:08.664Z,46.42
2018-09-16T04:59:08.617Z,46.42
2018-09-16T05:00:08.621Z,46.42
2018-09-16T05:01:08.611Z,46.51
2018-09-16T05:02:08.481Z,46.61
2018-09-16T05:03:08.437Z,46.42
2018-09-16T05:04:08.391Z,46.42
2018-09-16T05:05:08.353Z,46.51
2018-09-16T05:06:08.306Z,46.42
2018-09-16T05:07:08.257Z,46.42
2018-09-16T05:08:08.211Z,46.61
2018-09-16T05:09:08.169Z,46.33
2018-09-16T05:10:08.122Z,46.51
2018-09-16T05:11:08.077Z,46.42
2018-09-16T05:12:08.037Z,46.51
2018-09-16T05:13:07.986Z,46.51
2018-09-16T05:14:07.941Z,46.33
2018-09-16T05:15:07.898Z,46.42
2018-09-16T05:16:07.851Z,46.33
2018-09-16T05:17:07.809Z,46.42
2018-09-16T05:18:07.761Z,46.33
2018-09-16T05:19:07.717Z,46.33
2018-09-16T05:20:07.671Z,46.23
2018-09-16T05:21:07.626Z,46.33
2018-09-16T05:22:07.581Z,46.34
2018-09-16T05:23:07.536Z,46.42
2018-09-16T05:24:07.491Z,46.42
2018-09-16T05:25:07.446Z,46.42
2018-09-16T05:26:07.402Z,46.33
2018-09-16T05:27:07.356Z,46.42
2018-09-16T05:28:07.344Z,46.33
2018-09-16T05:29:07.266Z,46.23
2018-09-16T05:30:07.222Z,46.42
2018-09-16T05:31:07.176Z,46.33
2018-09-16T05:32:07.130Z,46.42
2018-09-16T05:33:07.086Z,46.42
2018-09-16T05:34:07.041Z,46.42
2018-09-16T05:35:06.996Z,46.25
2018-09-16T05:36:06.951Z,46.42
2018-09-16T05:37:06.906Z,46.42
2018-09-16T05:38:06.865Z,46.23
2018-09-16T05:39:06.817Z,46.23
2018-09-16T05:40:06.770Z,46.42
2018-09-16T05:41:06.777Z,46.44
2018-09-16T05:42:06.681Z,46.23
2018-09-16T05:43:06.637Z,46.42
2018-09-16T05:44:06.591Z,46.23
2018-09-16T05:45:06.545Z,46.33
2018-09-16T05:46:06.501Z,46.44
2018-09-16T05:47:06.505Z,46.23
2018-09-16T05:48:06.415Z,46.25
2018-09-16T05:49:06.369Z,46.42
2018-09-16T05:50:06.321Z,46.13
2018-09-16T05:51:06.277Z,46.33
2018-09-16T05:52:06.231Z,46.13
2018-09-16T05:53:06.252Z,46.15
2018-09-16T05:54:06.141Z,46.23
2018-09-16T05:55:06.098Z,46.23
2018-09-16T05:56:06.052Z,46.13
2018-09-16T05:57:06.007Z,46.25
2018-09-16T05:58:05.964Z,46.23
2018-09-16T05:59:05.919Z,46.15
2018-09-16T06:00:05.871Z,46.13
2018-09-16T06:01:05.826Z,46.33
2018-09-16T06:02:06.098Z,46.23
2018-09-16T06:03:05.737Z,46.13
2018-09-16T06:04:05.691Z,46.25
2018-09-16T06:05:05.672Z,46.23
2018-09-16T06:06:05.601Z,46.23
2018-09-16T06:07:05.557Z,46.13
2018-09-16T06:08:05.511Z,46.25
2018-09-16T06:09:05.517Z,46.06
2018-09-16T06:10:05.421Z,46.06
2018-09-16T06:11:05.377Z,46.06
2018-09-16T06:12:05.331Z,45.96
2018-09-16T06:13:05.286Z,46.15
2018-09-16T06:14:05.243Z,45.67
2018-09-16T06:15:05.197Z,46.06
2018-09-16T06:16:05.151Z,46.15
2018-09-16T06:17:05.107Z,45.76
2018-09-16T06:18:05.062Z,45.96
2018-09-16T06:19:05.020Z,45.76
2018-09-16T06:20:04.972Z,45.96
2018-09-16T06:21:04.927Z,45.86
2018-09-16T06:22:04.882Z,45.67
2018-09-16T06:23:04.890Z,45.38
2018-09-16T06:24:04.792Z,45.28
2018-09-16T06:25:04.747Z,45.28
2018-09-16T06:26:04.702Z,45.48
2018-09-16T06:27:04.657Z,45.18
2018-09-16T06:28:04.612Z,45.57
2018-09-16T06:29:04.567Z,45.59
2018-09-16T06:30:04.523Z,45.21
2018-09-16T06:31:04.478Z,45.31
2018-09-16T06:32:04.432Z,45.21
2018-09-16T06:33:04.387Z,45.01
2018-09-16T06:34:04.344Z,44.92
2018-09-16T06:35:04.302Z,44.63
2018-09-16T06:36:04.252Z,45.11
2018-09-16T06:37:04.208Z,44.92
2018-09-16T06:38:04.163Z,45.01
2018-09-16T06:39:04.119Z,44.92
2018-09-16T06:40:04.073Z,44.82
2018-09-16T06:41:04.028Z,44.43
2018-09-16T06:42:03.984Z,44.36
2018-09-16T06:43:03.939Z,44.43
2018-09-16T06:44:03.893Z,44.46
2018-09-16T06:45:03.849Z,44.17
2018-09-16T06:46:03.804Z,43.88
2018-09-16T06:47:03.766Z,44.65
2018-09-16T06:48:03.714Z,44.07
2018-09-16T06:49:03.670Z,44.07
2018-09-16T06:50:03.625Z,44.75
2018-09-16T06:51:03.738Z,44.84
2018-09-16T06:52:03.536Z,43.78
2018-09-16T06:53:03.552Z,44.48
2018-09-16T06:54:03.451Z,44.26
2018-09-16T06:55:03.402Z,43.99
2018-09-16T06:56:03.357Z,44.38
2018-09-16T06:57:03.312Z,43.71
2018-09-16T06:58:03.270Z,43.61
2018-09-16T06:59:03.224Z,43.80
2018-09-16T07:00:03.183Z,43.51
2018-09-16T07:01:03.135Z,43.41
2018-09-16T07:02:03.090Z,43.61
2018-09-16T07:03:03.146Z,43.61
2018-09-16T07:04:03.000Z,43.61
2018-09-16T07:05:02.957Z,43.51
2018-09-16T07:06:02.912Z,43.51
2018-09-16T07:07:02.871Z,43.51
2018-09-16T07:08:02.824Z,43.51
2018-09-16T07:09:02.779Z,43.51
2018-09-16T07:10:02.739Z,43.51
2018-09-16T07:11:02.692Z,43.51
2018-09-16T07:12:02.646Z,43.51
2018-09-16T07:13:02.602Z,43.41
2018-09-16T07:14:02.559Z,43.41
2018-09-16T07:15:02.516Z,43.61
2018-09-16T07:16:02.477Z,43.61
2018-09-16T07:17:02.426Z,43.80
2018-09-16T07:18:02.381Z,43.82
2018-09-16T07:19:02.337Z,43.80
2018-09-16T07:20:02.337Z,43.32
2018-09-16T07:21:02.249Z,43.24
2018-09-16T07:22:02.205Z,43.15
2018-09-16T07:23:02.162Z,42.86
2018-09-16T07:24:02.117Z,42.96
2018-09-16T07:25:02.074Z,42.86
2018-09-16T07:26:02.030Z,42.76
2018-09-16T07:27:01.987Z,42.76
2018-09-16T07:28:01.942Z,42.76
2018-09-16T07:29:01.898Z,42.86
2018-09-16T07:30:01.855Z,42.86
2018-09-16T07:31:01.815Z,42.66
2018-09-16T07:32:01.768Z,42.76
2018-09-16T07:33:01.724Z,42.37
2018-09-16T07:34:01.695Z,42.28
2018-09-16T07:35:01.690Z,42.40
2018-09-16T07:36:01.594Z,42.37
2018-09-16T07:37:01.554Z,42.66
2018-09-16T07:38:01.508Z,42.57
2018-09-16T07:39:01.467Z,42.66
2018-09-16T07:40:01.420Z,42.59
2018-09-16T07:41:01.384Z,42.57
2018-09-16T07:42:01.334Z,42.57
2018-09-16T07:43:01.294Z,42.68
2018-09-16T07:44:01.247Z,42.59
2018-09-16T07:45:01.205Z,42.47
2018-09-16T07:46:01.166Z,42.57
2018-09-16T07:47:01.119Z,42.78
2018-09-16T07:48:01.075Z,42.59
2018-09-16T07:49:01.032Z,42.68
2018-09-16T07:50:00.990Z,42.68
2018-09-16T07:51:00.947Z,42.68
2018-09-16T07:52:00.904Z,42.68
2018-09-16T07:53:00.955Z,42.68
2018-09-16T07:54:00.818Z,42.68
2018-09-16T07:55:00.774Z,42.59
2018-09-16T07:56:00.731Z,42.49
2018-09-16T07:57:00.689Z,42.59
2018-09-16T07:58:00.648Z,42.30
2018-09-16T07:59:00.604Z,42.30
2018-09-16T08:00:00.562Z,42.30
2018-09-16T08:01:00.518Z,42.10
2018-09-16T08:02:00.476Z,42.49
2018-09-16T08:03:00.433Z,42.59
2018-09-16T08:04:00.389Z,42.59
2018-09-16T08:05:00.347Z,42.59
2018-09-16T08:06:00.352Z,42.57
2018-09-16T08:07:00.273Z,42.47
2018-09-16T08:08:00.219Z,42.47
2018-09-16T08:09:00.177Z,42.37
2018-09-16T08:10:00.133Z,42.37
2018-09-16T08:11:00.091Z,42.28
2018-09-16T08:12:00.048Z,42.47
2018-09-16T08:13:00.006Z,42.76
2018-09-16T08:13:59.963Z,42.86
2018-09-16T08:14:59.921Z,42.86
2018-09-16T08:15:59.877Z,42.76
2018-09-16T08:16:59.835Z,42.66
2018-09-16T08:17:59.793Z,42.66
2018-09-16T08:18:59.760Z,42.57
2018-09-16T08:19:59.706Z,42.57
2018-09-16T08:20:59.765Z,42.86
2018-09-16T08:21:59.623Z,42.76
2018-09-16T08:22:59.579Z,42.86
2018-09-16T08:23:59.536Z,42.66
2018-09-16T08:24:59.493Z,42.66
2018-09-16T08:25:59.450Z,42.57
2018-09-16T08:26:59.408Z,42.86
2018-09-16T08:27:59.365Z,42.86
2018-09-16T08:28:59.323Z,43.13
2018-09-16T08:29:59.280Z,43.05
2018-09-16T08:30:59.237Z,43.05
2018-09-16T08:31:59.193Z,43.15
2018-09-16T08:32:59.150Z,42.83
2018-09-16T08:33:59.108Z,42.74
2018-09-16T08:34:59.069Z,42.93
2018-09-16T08:35:59.022Z,42.93
2018-09-16T08:36:58.979Z,43.03
2018-09-16T08:37:58.956Z,43.13
2018-09-16T08:38:58.894Z,43.03
2018-09-16T08:39:58.850Z,43.32
2018-09-16T08:40:58.807Z,43.23
2018-09-16T08:41:58.765Z,43.23
2018-09-16T08:42:58.725Z,43.23
2018-09-16T08:43:58.678Z,43.32
2018-09-16T08:44:58.639Z,43.51
2018-09-16T08:45:58.594Z,43.61
2018-09-16T08:46:58.551Z,43.80
2018-09-16T08:47:58.506Z,43.41
2018-09-16T08:48:58.464Z,43.41
2018-09-16T08:49:58.421Z,43.51
2018-09-16T08:50:58.379Z,43.32
2018-09-16T08:51:58.333Z,43.32
2018-09-16T08:52:58.294Z,43.23
2018-09-16T08:53:58.248Z,43.32
2018-09-16T08:54:58.205Z,43.32
2018-09-16T08:55:58.161Z,43.41
2018-09-16T08:56:58.141Z,43.51
2018-09-16T08:57:58.103Z,43.13
2018-09-16T08:58:58.032Z,43.13
2018-09-16T08:59:57.988Z,43.32
2018-09-16T09:00:57.945Z,43.32
2018-09-16T09:01:57.902Z,43.32
2018-09-16T09:02:57.859Z,43.13
2018-09-16T09:03:57.814Z,43.13
2018-09-16T09:04:57.771Z,43.32
2018-09-16T09:05:57.728Z,43.32
2018-09-16T09:06:57.684Z,43.32
2018-09-16T09:07:57.640Z,43.32
2018-09-16T09:08:57.747Z,43.23
2018-09-16T09:09:57.554Z,43.13
2018-09-16T09:10:57.511Z,43.32
2018-09-16T09:11:57.466Z,43.13
2018-09-16T09:12:57.423Z,43.23
2018-09-16T09:13:57.379Z,43.23
2018-09-16T09:14:57.336Z,43.23
2018-09-16T09:15:57.291Z,43.23
2018-09-16T09:16:57.247Z,43.32
2018-09-16T09:17:57.204Z,43.13
2018-09-16T09:18:57.161Z,43.32
2018-09-16T09:19:57.116Z,43.13
2018-09-16T09:20:57.072Z,43.13
2018-09-16T09:21:57.028Z,43.32
2018-09-16T09:22:56.985Z,43.13
2018-09-16T09:23:56.940Z,43.23
2018-09-16T09:24:56.897Z,43.23
2018-09-16T09:25:56.853Z,43.13
2018-09-16T09:26:56.814Z,43.23
2018-09-16T09:27:56.764Z,43.32
2018-09-16T09:28:56.723Z,43.32
2018-09-16T09:29:56.677Z,43.23
2018-09-16T09:30:56.634Z,43.23
2018-09-16T09:31:56.589Z,43.23
2018-09-16T09:32:56.545Z,43.03
2018-09-16T09:33:56.501Z,42.93
2018-09-16T09:34:56.457Z,43.23
2018-09-16T09:35:56.413Z,43.13
2018-09-16T09:36:56.369Z,43.23
2018-09-16T09:37:56.325Z,43.23
2018-09-16T09:38:56.282Z,43.32
2018-09-16T09:39:56.236Z,43.23
2018-09-16T09:40:56.196Z,43.03
2018-09-16T09:41:56.149Z,43.32
2018-09-16T09:42:56.174Z,43.32
2018-09-16T09:43:56.061Z,43.03
2018-09-16T09:44:56.016Z,43.13
2018-09-16T09:45:55.973Z,43.03
2018-09-16T09:46:55.978Z,43.03
2018-09-16T09:47:55.883Z,43.03
2018-09-16T09:48:55.840Z,43.13
2018-09-16T09:49:55.796Z,43.23
2018-09-16T09:50:55.766Z,42.93
2018-09-16T09:51:55.707Z,43.03
2018-09-16T09:52:55.663Z,42.93
2018-09-16T09:53:55.619Z,43.03
2018-09-16T09:54:55.575Z,42.72
2018-09-16T09:55:55.530Z,42.93
2018-09-16T09:56:55.487Z,42.72
2018-09-16T09:57:55.449Z,42.93
2018-09-16T09:58:55.476Z,42.93
2018-09-16T09:59:55.354Z,42.93
2018-09-16T10:00:55.310Z,42.83
2018-09-16T10:01:55.266Z,43.03
2018-09-16T10:02:55.222Z,42.83
2018-09-16T10:03:55.177Z,42.91
2018-09-16T10:04:55.133Z,43.03
2018-09-16T10:05:55.092Z,43.01
2018-09-16T10:06:55.045Z,43.03
2018-09-16T10:07:55.002Z,42.93
2018-09-16T10:08:54.956Z,42.72
2018-09-16T10:09:54.912Z,42.93
2018-09-16T10:10:54.868Z,43.01
2018-09-16T10:11:54.823Z,43.10
2018-09-16T10:12:54.827Z,43.01
2018-09-16T10:13:54.736Z,42.91
2018-09-16T10:14:54.693Z,43.20
2018-09-16T10:15:54.647Z,43.20
2018-09-16T10:16:54.602Z,43.10
2018-09-16T10:17:54.558Z,43.01
2018-09-16T10:18:54.514Z,42.91
2018-09-16T10:19:54.469Z,43.01
2018-09-16T10:20:54.425Z,43.01
2018-09-16T10:21:54.382Z,43.30
2018-09-16T10:22:54.337Z,43.20
2018-09-16T10:23:54.293Z,43.10
2018-09-16T10:24:54.248Z,43.20
2018-09-16T10:25:54.204Z,43.10
2018-09-16T10:26:54.167Z,43.30
2018-09-16T10:27:54.116Z,43.10
2018-09-16T10:28:54.072Z,43.20
2018-09-16T10:29:54.033Z,43.30
2018-09-16T10:30:53.983Z,43.59
2018-09-16T10:31:53.939Z,43.30
2018-09-16T10:32:53.894Z,43.88
2018-09-16T10:33:53.850Z,43.20
2018-09-16T10:34:53.806Z,43.59
2018-09-16T10:35:53.765Z,43.59
2018-09-16T10:36:53.717Z,43.20
2018-09-16T10:37:53.673Z,43.10
2018-09-16T10:38:53.724Z,43.20
2018-09-16T10:39:53.584Z,43.20
2018-09-16T10:40:53.540Z,43.10
2018-09-16T10:41:53.496Z,43.10
2018-09-16T10:42:53.453Z,42.91
2018-09-16T10:43:53.419Z,43.30
2018-09-16T10:44:53.363Z,43.20
2018-09-16T10:45:53.318Z,43.01
2018-09-16T10:46:53.276Z,43.20
2018-09-16T10:47:53.230Z,43.30
2018-09-16T10:48:53.186Z,42.91
2018-09-16T10:49:53.142Z,43.01
2018-09-16T10:50:53.097Z,43.10
2018-09-16T10:51:53.052Z,43.30
2018-09-16T10:52:53.061Z,42.82
2018-09-16T10:53:52.965Z,42.91
2018-09-16T10:54:52.920Z,43.10
2018-09-16T10:55:52.875Z,43.10
2018-09-16T10:56:52.830Z,42.82
2018-09-16T10:57:52.788Z,43.10
2018-09-16T10:58:52.742Z,42.91
2018-09-16T10:59:52.697Z,42.72
2018-09-16T11:00:52.653Z,43.01
2018-09-16T11:01:52.609Z,42.91
2018-09-16T11:02:52.566Z,43.01
2018-09-16T11:03:52.526Z,43.01
2018-09-16T11:04:52.480Z,42.82
2018-09-16T11:05:52.432Z,43.01
2018-09-16T11:06:52.388Z,43.10
2018-09-16T11:07:52.407Z,43.01
2018-09-16T11:08:52.298Z,43.01
2018-09-16T11:09:52.254Z,43.01
2018-09-16T11:10:52.210Z,43.01
2018-09-16T11:11:52.166Z,42.72
2018-09-16T11:12:52.121Z,42.82
2018-09-16T11:13:52.077Z,42.91
2018-09-16T11:14:52.033Z,43.01
2018-09-16T11:15:52.035Z,42.82
2018-09-16T11:16:51.943Z,42.91
2018-09-16T11:17:51.900Z,42.72
2018-09-16T11:18:51.856Z,42.82
2018-09-16T11:19:51.810Z,42.72
2018-09-16T11:20:51.767Z,42.72
2018-09-16T11:21:51.722Z,42.82
2018-09-16T11:22:51.678Z,42.82
2018-09-16T11:23:51.633Z,42.91
2018-09-16T11:24:51.589Z,42.72
2018-09-16T11:25:51.545Z,42.82
2018-09-16T11:26:51.500Z,43.01
2018-09-16T11:27:51.456Z,42.82
2018-09-16T11:28:51.412Z,42.82
2018-09-16T11:29:51.371Z,42.82
2018-09-16T11:30:51.325Z,42.72
2018-09-16T11:31:51.279Z,42.72
2018-09-16T11:32:51.234Z,42.82
2018-09-16T11:33:51.190Z,42.72
2018-09-16T11:34:51.144Z,42.72
2018-09-16T11:35:51.107Z,42.52
2018-09-16T11:36:51.056Z,42.52
2018-09-16T11:37:51.012Z,42.82
2018-09-16T11:38:50.968Z,42.82
2018-09-16T11:39:50.926Z,42.82
2018-09-16T11:40:50.879Z,42.72
2018-09-16T11:41:50.835Z,42.72
2018-09-16T11:42:50.791Z,42.72
2018-09-16T11:43:50.746Z,42.72
2018-09-16T11:44:50.705Z,42.72
2018-09-16T11:45:50.657Z,42.72
2018-09-16T11:46:50.613Z,42.72
2018-09-16T11:47:50.571Z,42.72
2018-09-16T11:48:50.524Z,42.62
2018-09-16T11:49:50.480Z,42.72
2018-09-16T11:50:50.436Z,42.52
2018-09-16T11:51:50.391Z,42.52
2018-09-16T11:52:50.347Z,42.82
2018-09-16T11:53:50.303Z,42.72
2018-09-16T11:54:50.259Z,42.72
2018-09-16T11:55:50.222Z,42.72
2018-09-16T11:56:50.169Z,42.82
2018-09-16T11:57:50.125Z,42.62
2018-09-16T11:58:50.081Z,42.62
2018-09-16T11:59:50.036Z,42.62
2018-09-16T12:00:49.992Z,42.62
2018-09-16T12:01:49.951Z,42.72
2018-09-16T12:02:49.905Z,42.72
2018-09-16T12:03:49.859Z,42.82
2018-09-16T12:04:49.814Z,42.72
2018-09-16T12:05:49.771Z,42.72
2018-09-16T12:06:49.726Z,42.62
2018-09-16T12:07:49.681Z,42.52
2018-09-16T12:08:49.637Z,42.52
2018-09-16T12:09:49.593Z,42.72
2018-09-16T12:10:49.549Z,42.82
2018-09-16T12:11:49.505Z,42.82
2018-09-16T12:12:49.464Z,42.91
2018-09-16T12:13:49.416Z,42.72
2018-09-16T12:14:49.372Z,42.72
2018-09-16T12:15:49.327Z,42.72
2018-09-16T12:16:49.282Z,42.72
2018-09-16T12:17:49.239Z,42.72
2018-09-16T12:18:49.195Z,42.52
2018-09-16T12:19:49.148Z,42.52
2018-09-16T12:20:49.105Z,42.82
2018-09-16T12:21:49.061Z,42.52
2018-09-16T12:22:49.017Z,42.62
2018-09-16T12:23:48.971Z,42.52
2018-09-16T12:24:48.927Z,42.72
2018-09-16T12:25:48.886Z,42.62
2018-09-16T12:26:48.838Z,42.72
2018-09-16T12:27:48.794Z,42.62
2018-09-16T12:28:48.750Z,42.72
2018-09-16T12:29:48.713Z,42.82
2018-09-16T12:30:48.722Z,42.82
2018-09-16T12:31:48.616Z,42.72
2018-09-16T12:32:48.572Z,42.72
2018-09-16T12:33:48.629Z,42.72
2018-09-16T12:34:48.494Z,42.62
2018-09-16T12:35:48.439Z,42.72
2018-09-16T12:36:48.394Z,42.62
2018-09-16T12:37:48.350Z,42.79
2018-09-16T12:38:48.306Z,42.82
2018-09-16T12:39:48.261Z,42.72
2018-09-16T12:40:48.217Z,42.79
2018-09-16T12:41:48.173Z,42.33
2018-09-16T12:42:48.129Z,42.33
2018-09-16T12:43:48.084Z,42.72
2018-09-16T12:44:48.039Z,42.70
2018-09-16T12:45:47.996Z,42.72
2018-09-16T12:46:47.952Z,42.31
2018-09-16T12:47:47.907Z,42.31
2018-09-16T12:48:47.863Z,42.41
2018-09-16T12:49:47.817Z,42.31
2018-09-16T12:50:47.783Z,42.33
2018-09-16T12:51:47.731Z,42.41